NWS Home NWS Lubbock West Texas Mesonet Day over Day changes as of 0446 AM, Sat May 26, 2018

Latest   N   C   S   Daily Sum   3hrΔ   24hrΔ   Soil Data 
Site Map   24hr Precip   72hr Precip   Google Plot


Station Time of Last Temp Today Temp Yesterday Delta-T Dewpoint Today Dewpoint Yesterday Delta-Td Delta-Pressure (mB)
Reese Center  04:40 AM 69.4 66.8 2.6 56.4 59.3 -2.8 -3.6
Abernathy  04:40 AM 65.2 70.1 -4.8 55.1 60 -4.8 -3.5
Plainview  04:40 AM 65.3 67.1 -1.8 55.8 59.5 -3.7 -3.6
Tahoka  04:40 AM 72.8 70.2 2.6 58.6 59.4 -0.7 -3.4
Slaton  04:40 AM 69.5 71.5 -2.1 57.1 58.9 -1.8 -3.3
Levelland  04:40 AM 69.1 68.5 0.6 54.4 57.8 -3.3 -3.7
Roaring Springs  04:40 AM 66.1 72.1 -6 58.7 62 -3.3 -3.4
Floydada  04:40 AM 66.8 68.3 -1.5 56.9 58.6 -1.6 -3.7
Ralls  04:40 AM 62.5 67.7 -5.2 54.7 57.8 -3.1 -3.5
Brownfield  04:40 AM 71 69.4 1.6 58.1 60.5 -2.4 -3.6
Muleshoe  04:40 AM 64.5 68.5 -4.1 42.3 58.7 -16.4 -3.9
Morton  04:40 AM 66.6 68.1 -1.5 48 58 -10 -3.8
O'Donnell  04:40 AM 73.8 70.2 3.5 57.5 57.5 -0 -3.4
Seagraves  04:40 AM 68.2 67.5 0.7 55.5 59.3 -3.8 -3.9
Amherst  04:40 AM 64.7 68.5 -3.7 51.9 57.4 -5.6 -3.5
Plains  04:40 AM 68.5 66.8 1.7 52.9 59.3 -6.3 -4
Lamesa  04:40 AM 72.3 67.6 4.7 60.7 60.6 0.1 -3.4
Hart  04:40 AM 63.4 66.8 -3.5 53.6 58.5 -4.9 -3.4
Friona  04:40 AM 59.6 66.6 -7 43.1 56.4 -13.3 -3.5
Dimmitt  04:40 AM 59.3 68.1 -8.8 50.9 56.7 -5.8 -3.6
Tulia  04:40 AM 63.7 68.7 -5.1 55.1 60.1 -5 -3.4
Silverton  04:40 AM 65.4 70.8 -5.3 55.2 58.4 -3.2 -3.2
Post  04:40 AM 73.8 74.5 -0.6 58.5 58 0.4 -3.4
Seminole  04:40 AM 70.5 69.9 0.6 54.8 58.9 -4.1 -3.7
Gail  04:40 AM 70.8 71.5 -0.7 58.7 58.7 0 -3
White River Lake  04:40 AM 66.3 69.5 -3.3 55.9 59.2 -3.3 -3.3
Graham  04:40 AM 72.9 73.5 -0.5 58.4 58.7 -0.3 -3.2
Sundown  04:40 AM 63.2 67.4 -4.2 53.1 58.3 -5.2 -3.8
Anton  04:40 AM 70.4 68.5 1.9 56.7 59.5 -2.8 -3.5
Fluvanna  04:40 AM 71.4 69.7 1.7 57.2 58.2 -1 -3.4
Spur  04:40 AM 66.7 67.8 -1.1 56.3 59.6 -3.2 -3.5
Northwest Lubbock  04:40 AM 73.4 71.8 1.6 55.3 58.7 -3.3 -3.5
Guthrie  04:40 AM 70.4 69.1 1.2 57.3 58.9 -1.6 -3.6
Clarendon  04:40 AM 62.4 67.4 -5 54.2 59.7 -5.6 -2.8
Paducah  04:40 AM 72.5 69.2 3.3 58.6 60.5 -1.9 -3.8
Snyder  04:40 AM 71.4 70 1.4 57.8 61.4 -3.6 -3.8
Memphis  04:40 AM 64.4 68.2 -3.8 58.9 63.8 -4.8 -2.9
Jayton  04:40 AM 72.3 70.3 2.1 57.1 59.8 -2.7 -3.7
Pampa  04:40 AM 63.1 64.9 -1.8 62 61.7 0.3 -2.5
Aspermont  04:40 AM 69.4 70.7 -1.2 56.3 63.1 -6.7 -4
Hereford  04:40 AM 59.9 66.8 -6.9 47.4 53.7 -6.2 -3.6
Goodlett  04:40 AM 68.6 69.9 -1.3 57.2 62.4 -5.2 -2.6
McLean  04:40 AM 65.9 67.4 -1.5 60.9 60.5 0.4 -2.5
Denver City  04:40 AM 65.9 67.2 -1.2 52.6 58.1 -5.5 -4.1
Lake Alan Henry  04:40 AM 74 74.6 -0.6 60.7 61.6 -0.9 -3.8
Wolfforth  04:40 AM 69.4 67 2.5 57.7 59.5 -1.8 -3.7
Andrews  04:40 AM 72.6 70.1 2.5 55.4 59.2 -3.7 -3.7
Turkey  04:40 AM 69.1 74.1 -5 58.3 61.9 -3.6 -3.1
Childress  04:40 AM 67.3 68.5 -1.2 57 62.8 -5.8 -2.7
Tatum  04:40 AM 58.7 65.4 -6.8 51.9 57.6 -5.7 -4.2
Northfield  04:40 AM 68.9 68.9 0.1 57.2 58.6 -1.4 -3
Dora  04:40 AM 64.9 64.1 0.8 38.2 57.4 -19.2 -3.8
Northwest San Angelo  04:40 AM 71.4 67.1 4.3 59.6 60.1 -0.5 -3.5
Saint Lawrence  04:40 AM 72.4 70.2 2.3 60 59.4 0.6 -3.1
Haskell  04:40 AM 68.6 73.3 -4.8 56.8 59.2 -2.4 -4.3
Wall  04:40 AM 74.3 73.8 0.5 63 60.9 2.1 -3.6
Seymour  04:40 AM 68.1 72.3 -4.2 60.8 64.3 -3.5 -3.4
Knox City  04:40 AM 69.5 74 -4.5 59.8 61.6 -1.8 -4
Guadalupe Mtns Park  04:40 AM 76.3 69.2 7.1 4 44.5 -40.5 -3.9
Caprock Canyons   04:40 AM 66.9 73.6 -6.8 59.3 60.8 -1.5 -2.9
Odell  04:40 AM 65.9 72.7 -6.9 62 66.1 -4.1 -2.6
Coyanosa  04:40 AM 75.2 70.1 5.1 56.3 59.8 -3.5 -4.2
Big Lake  04:40 AM 74 68 6 61.8 61.3 0.5 -3.3
Junction  10:00 PM 66.8 82.2 -15.4 63.5 58.7 4.8 6.2
Hobbs  04:40 AM 71.9 68.7 3.1 53.4 59.5 -6.1 -4.3
Canadian  04:40 AM 64.6 71.2 -6.6 63.7 63.9 -0.2 -2.3
Palo Duro Canyon State Park Rim  04:40 AM 66.4 71.1 -4.7 51.8 56.9 -5.2 -2.8
Bootleg  04:35 AM 57.6 66 -8.4 41.1 52.9 -11.8 -3.3
Sterling City  04:40 AM 71.9 67.4 4.5 60.1 61.4 -1.3 -3.8
Mertzon  04:40 AM 66.5 69 -2.5 59.6 60.9 -1.3 -3.3
Persimmon Gap  04:40 AM 75.1 76.2 -1.1 54.9 60 -5.1 -2.8
Weinert  04:40 AM 68.5 75.4 -6.9 59.9 62 -2.1 -4.1
Claude 12 Southwest  04:40 AM 67.2 74.6 -7.5 52.4 58.3 -5.9 -2.9
Amarillo 7 South Southeast  04:40 AM 60.7 67.8 -7.1 50.6 56.3 -5.7 -2.9
Umbarger  04:40 AM 63.2 70.5 -7.4 50.4 57.5 -7 -3.3
Lomax  04:40 AM 75.3 73.1 2.2 61.5 61 0.5 -3.5
Amarillo 9 North Northeast  04:40 AM 62.9 73.4 -10.5 51.5 58.4 -6.8 -2.7
Aiken 3 West Southwest  04:40 AM 66.8 66.3 0.5 56 58.9 -2.9 -3.4
Sweetwater  04:40 AM 72.6 71.2 1.4 56.3 62.2 -5.9 -4.2
Dozier  04:40 AM 66.4 69 -2.5 65.6 64.6 1 -2.6
Amarillo 15 North Northwest  04:40 AM 59.9 72.4 -12.6 52.5 58.1 -5.6 -2.4
Menard  04:40 AM 71.7 68.5 3.2 65 64.3 0.7 -3.7
Tarzan  04:40 AM 75.6 72 3.6 62.2 60.9 1.4 -3.6
Goodnight  04:40 AM 61 65.1 -4.2 54.3 60.5 -6.1 -2.8
Boys Ranch   04:40 AM 62.8 66.6 -3.8 54.3 56 -1.7 -3
Fort McKavett  04:40 AM 73.3 71.1 2.2 64.1 64.9 -0.8 -3.1
Fort Chadbourne  04:40 AM 66.7 66.2 0.5 57.8 61.8 -4 -3.9
Palo Duro Canyon State Park Floor  04:40 AM 68.7 75.7 -7 52.9 58.9 -6 -2.8
Fort Lancaster  04:40 AM 77.5 74.8 2.6 61.7 62.9 -1.2 -3.8
Dell City 1N  04:40 AM 59.4 62.4 -3 24.5 50.4 -25.8 -4.2
Clyde  04:40 AM 74.3 68.7 5.6 53.5 60.7 -7.1 -4.9
Snyder SSW  04:40 AM 71.7 71.1 0.6 58.7 62.1 -3.4 -3.6
Panhandle  04:40 AM 61.6 62.4 -0.7 52.9 58.4 -5.5 -2.8
Vigo Park  04:40 AM 62.6 64.5 -2 54 58.2 -4.2 -3.1
Welch  04:40 AM 70.6 69.2 1.4 60 61.5 -1.5 -3.5
Throckmorton  04:40 AM 69 71.1 -2.1 58.9 65 -6.1 -4
Sierra Blanca  04:40 AM 69.4 69.1 0.4 9.4 47.9 -38.5 -3.8
Fort Lewis CO  04:40 AM 43.4 46.7 -3.3 17.7 21.8 -4 -2
New Home  04:40 AM 72.6 68.5 4.2 59.1 60.7 -1.6 -3.6
McCamey  04:40 AM 78.7 75 3.7 61 62.1 -1.1 -4.1
Stamford  04:40 AM 66.9 73.7 -6.8 61.7 62.7 -1 -4.3
Crowell  04:40 AM 69.1 71.4 -2.4 60.8 64.2 -3.4 -3
Stinnett  04:40 AM 63.5 67.5 -4 58.2 59.7 -1.5 -2.1
Colorado City  04:40 AM 71.8 68.7 3.1 58.6 62.2 -3.6 -3.6
Happy  04:40 AM 59 63.7 -4.7 50.6 56.3 -5.7 -3.5
Endee  04:40 AM 61.5 71 -9.5 39.6 52.2 -12.6 -3.2
JA Ranch  04:40 AM 57.2 61.1 -3.9 52.8 59.3 -6.5 -2.9
Adrian  04:40 AM 60.7 64.9 -4.2 46.9 52.6 -5.7 -3.3
Lesley  04:40 AM 67.5 69.2 -1.8 56.7 64.1 -7.3 -3
Earth  04:40 AM 59.7 66.6 -6.9 44.6 58.5 -13.9 -3.9
Van Horn  04:40 AM 66.5 68.4 -2 45.9 49.8 -3.9 -4
Rotan  04:40 AM 73.8 69.9 3.9 57.3 61.4 -4.1 -4
Fritch  04:40 AM 63 71.1 -8.1 53.7 56.8 -3.2 -1.9
Estelline  04:40 AM 65.8 68 -2.3 59.1 62.8 -3.7 -3
Olton  04:40 AM 60.7 68.5 -7.8 52.2 58.5 -6.3 -3.2

West Texas Mesonet Home   Site Map/Menu  NWS Lubbock Soil Data  Daily Summary Page  24hr Precip  72hr Precip  Google Plot